METAR LOCAUX

2021/07/25 03:30 LFST 250330Z AUTO VRB02KT 6000 OVC005 17/17 Q1010 BECMG FEW030
2021/07/25 03:50 EDSB 250350Z 22004KT 9000 BKN028 18/17 ////
2021/07/25 03:30 LFGA 250330Z AUTO 26003KT 9999 OVC009 18/17 Q1010
www.noaa.gov

Ne pas utiliser pour préparer ou effectuer un vol: Utilisez la documentation officielle disponible sur aviation.meteo.fr (Aéroweb)


"Le soleil du matin ne dure pas forcément toute la journée."

Animation satellite IR

Meteociel.fr

"Derrière chaque nuage se cache le ciel bleu."

Radar pluie

Infoclimat.fr

"Si tu veux l’arc-en-ciel, tu dois supporter la pluie."
Dolly Parton

Nébulosité (octas)

Meteociel.fr

"Le soleil est souvent obscurci par les nuages et la raison par les passions."
Démophile

Impacts de foudre

www.meteo60.fr

"Celui que frappe la foudre n'entend pas le tonnerre."

Vigilance météo

vigilance-meteo.fr

"Tout nuage n'enfante pas une tempête."
William Shakespeare

TAF locaux

2021/07/25 03:26 TAF AMD LFST 250318Z 2503/2524 20005KT 9999 FEW030 TEMPO 2503/2505 2000 BR BKN003 TEMPO 2510/2520 3000 SHRA FEW030CB
2021/07/24 18:27 TAF EDSB 241700Z 2418/2518 VRB03KT CAVOK PROB30 TEMPO 2418/2422 4000 TSRA BKN040CB PROB30 TEMPO 2502/2507 2000 BCFG PROB30 TEMPO 2512/2518 TSRA BKN030CB
www.noaa.gov

Ne pas utiliser pour préparer ou effectuer un vol: Utilisez la documentation officielle disponible sur aviation.meteo.fr (Aéroweb)


"Les jours où le ciel est gris, le soleil n'a pas disparu à tout jamais."
Arnaud Desjardins

Prévisions 7 jours


Meteoblue.com

"Quand les crapauds chantent, le beau temps s'avance !"